Time;durP1;ratioP1;P1;durP2;ratioP2;P2;SDS_P1;SDS_P2;PMS_P1;PMS_P2;Temp;Humidity;BMP_temperature;BMP_pressure;BME280_temperature;BME280_humidity;BME280_pressure;Samples;Min_cycle;Max_cycle;Signal;HPM_P1;HPM_P2
2022/10/02 00:00:00;;;;;;;4.10;1.30;;;;;;;15.37;59.62;98379.66;4473248;32;20153;-84
2022/10/02 00:02:36;;;;;;;5.57;1.35;;;;;;;15.30;60.24;98389.94;4487734;32;20110;-84
2022/10/02 00:05:12;;;;;;;2.37;1.00;;;;;;;15.10;60.99;98393.34;4473379;32;20105;-85
2022/10/02 00:07:47;;;;;;;3.28;1.17;;;;;;;15.13;61.02;98385.16;4487729;32;20451;-84
2022/10/02 00:10:23;;;;;;;2.75;1.00;;;;;;;15.05;60.72;98406.97;4487492;32;20106;-84
2022/10/02 00:12:54;;;;;;;2.85;1.10;;;;;;;14.20;62.57;98394.06;4473335;32;20109;-84
2022/10/02 00:15:26;;;;;;;3.47;0.82;;;;;;;14.37;62.10;98414.00;4473480;32;20101;-83
2022/10/02 00:17:55;;;;;;;3.70;1.10;;;;;;;14.47;61.59;98391.13;4473366;32;20478;-82
2022/10/02 00:20:51;;;;;;;4.30;0.85;;;;;;;14.84;60.79;98408.66;4487389;32;20084;-82
2022/10/02 00:23:27;;;;;;;1.65;0.70;;;;;;;14.74;60.75;98424.44;4422810;32;20129;-82
2022/10/02 00:26:06;;;;;;;2.47;1.00;;;;;;;14.47;61.52;98414.13;4410465;32;20114;-83
2022/10/02 00:28:43;;;;;;;2.92;0.90;;;;;;;14.75;60.98;98424.31;4423034;32;20665;-83
2022/10/02 00:31:21;;;;;;;3.20;0.90;;;;;;;15.13;60.31;98425.78;4410464;32;20153;-83
2022/10/02 00:33:59;;;;;;;3.80;1.10;;;;;;;15.41;59.39;98425.38;4423048;32;20140;-83
2022/10/02 00:36:44;;;;;;;3.08;1.02;;;;;;;14.81;60.66;98425.66;4423211;32;20205;-83
2022/10/02 00:39:45;;;;;;;2.37;1.05;;;;;;;14.99;60.57;98419.88;4409987;32;20362;-83
2022/10/02 00:42:48;;;;;;;3.25;1.02;;;;;;;14.69;61.14;98422.13;4400453;32;20102;-82
2022/10/02 00:45:23;;;;;;;5.07;1.60;;;;;;;14.80;61.33;98425.78;4410380;32;20457;-82
2022/10/02 00:48:02;;;;;;;3.80;1.20;;;;;;;14.24;62.93;98434.44;4423224;32;20128;-82
2022/10/02 00:50:42;;;;;;;3.65;1.23;;;;;;;14.15;63.46;98414.75;4423063;32;20102;-82
2022/10/02 00:53:19;;;;;;;4.05;1.10;;;;;;;14.39;63.06;98443.00;4397840;32;20105;-82
2022/10/02 00:56:22;;;;;;;4.87;1.40;;;;;;;14.20;63.46;98444.41;4423009;32;20247;-82
2022/10/02 00:58:50;;;;;;;5.03;1.20;;;;;;;14.08;64.70;98440.88;4422857;32;20129;-82
2022/10/02 01:01:32;;;;;;;3.83;1.42;;;;;;;14.09;64.46;98439.91;4484950;32;20403;-83
2022/10/02 01:04:00;;;;;;;5.22;1.40;;;;;;;14.50;63.32;98451.81;4487276;32;20077;-83
2022/10/02 01:06:27;;;;;;;4.45;1.42;;;;;;;14.04;64.72;98451.78;4487080;32;20132;-83
2022/10/02 01:08:53;;;;;;;3.55;1.37;;;;;;;14.30;64.58;98447.22;4487179;32;20124;-83
2022/10/02 01:11:20;;;;;;;4.50;1.45;;;;;;;14.42;63.90;98442.78;4487063;32;20115;-84
2022/10/02 01:13:46;;;;;;;5.40;1.45;;;;;;;14.44;63.85;98454.94;4487155;32;20088;-83
2022/10/02 01:16:13;;;;;;;5.60;1.20;;;;;;;14.08;64.63;98450.59;4486957;32;20451;-84
2022/10/02 01:18:38;;;;;;;4.93;1.05;;;;;;;14.14;64.51;98452.81;4487067;32;20100;-83
2022/10/02 01:21:08;;;;;;;4.37;1.20;;;;;;;14.28;63.79;98447.31;4472815;32;20428;-83
2022/10/02 01:24:02;;;;;;;4.80;1.23;;;;;;;14.50;63.23;98467.72;4469782;32;20084;-83
2022/10/02 01:26:28;;;;;;;4.53;1.17;;;;;;;14.26;63.81;98448.41;4470273;32;20100;-84
2022/10/02 01:28:53;;;;;;;4.75;1.33;;;;;;;14.45;62.89;98454.00;4471245;32;20128;-83
2022/10/02 01:31:18;;;;;;;4.15;1.30;;;;;;;14.32;62.90;98456.72;4470210;32;20126;-83
2022/10/02 01:33:45;;;;;;;4.85;1.10;;;;;;;14.39;63.13;98462.44;4471160;32;20076;-83
2022/10/02 01:36:12;;;;;;;5.53;1.40;;;;;;;14.30;63.53;98453.34;4470191;32;20101;-83
2022/10/02 01:38:39;;;;;;;5.55;1.50;;;;;;;14.75;62.09;98471.19;4471178;32;20198;-83
2022/10/02 01:41:06;;;;;;;3.67;1.15;;;;;;;14.15;64.41;98483.63;4469950;32;20089;-84
2022/10/02 01:43:34;;;;;;;3.58;1.27;;;;;;;13.84;65.22;98472.66;4471479;32;20099;-84
2022/10/02 01:46:18;;;;;;;2.60;1.10;;;;;;;14.39;63.40;98480.97;4470358;32;20404;-84
2022/10/02 01:48:45;;;;;;;3.83;1.15;;;;;;;14.40;63.03;98482.66;4471484;32;20632;-84
2022/10/02 01:51:38;;;;;;;5.30;1.27;;;;;;;14.50;62.71;98477.50;4470661;32;20093;-84
2022/10/02 01:54:28;;;;;;;2.90;1.20;;;;;;;14.12;64.03;98497.13;4469903;32;20089;-83
2022/10/02 01:57:02;;;;;;;4.03;1.15;;;;;;;14.26;63.55;98504.06;4471127;32;20100;-82
2022/10/02 01:59:46;;;;;;;5.00;1.30;;;;;;;14.19;63.71;98498.34;4471023;32;20080;-82
2022/10/02 02:02:27;;;;;;;2.90;1.17;;;;;;;14.11;64.04;98512.16;4470990;32;20141;-81
2022/10/02 02:04:59;;;;;;;2.60;1.10;;;;;;;14.34;63.84;98505.16;4456772;32;20672;-82
2022/10/02 02:07:34;;;;;;;4.97;1.35;;;;;;;14.49;63.92;98521.72;4469800;32;20119;-82
2022/10/02 02:10:09;;;;;;;4.78;1.50;;;;;;;14.55;63.85;98515.13;4469537;32;20148;-82
2022/10/02 02:12:42;;;;;;;4.90;1.83;;;;;;;14.33;65.18;98527.31;4469672;32;20084;-81
2022/10/02 02:15:29;;;;;;;5.55;1.45;;;;;;;14.74;63.92;98530.53;4470769;32;20145;-81
2022/10/02 02:17:59;;;;;;;4.97;1.62;;;;;;;14.64;64.24;98538.31;4470928;32;20085;-81
2022/10/02 02:20:30;;;;;;;3.90;1.37;;;;;;;14.93;63.25;98541.41;4469564;32;20123;-82
2022/10/02 02:23:02;;;;;;;3.67;1.45;;;;;;;14.43;64.82;98530.13;4456238;32;20406;-81
2022/10/02 02:25:31;;;;;;;5.22;1.40;;;;;;;14.96;63.24;98528.88;4469554;32;20376;-81
2022/10/02 02:27:58;;;;;;;4.65;1.48;;;;;;;14.74;63.89;98522.56;4469469;32;20108;-81
2022/10/02 02:30:24;;;;;;;;;;;;;;;14.55;64.65;98529.22;4469763;32;20445;-82
2022/10/02 02:33:01;;;;;;;6.50;1.60;;;;;;;15.01;62.91;98527.56;4470524;32;20017;-81
2022/10/02 02:35:32;;;;;;;5.85;1.62;;;;;;;14.19;65.62;98530.13;4469385;32;20500;-81
2022/10/02 02:38:04;;;;;;;5.87;1.40;;;;;;;14.78;63.96;98531.97;4470448;32;20147;-81
2022/10/02 02:40:32;;;;;;;5.10;1.58;;;;;;;14.30;65.72;98550.56;4470471;32;20100;-81
2022/10/02 02:43:02;;;;;;;3.55;1.45;;;;;;;13.94;66.81;98553.09;4469424;32;20100;-82
2022/10/02 02:45:37;;;;;;;3.22;1.23;;;;;;;14.47;65.19;98538.72;4469241;32;20152;-82
2022/10/02 02:48:30;;;;;;;3.33;1.37;;;;;;;14.64;64.76;98548.94;4469359;32;20154;-83
2022/10/02 02:51:03;;;;;;;4.37;1.45;;;;;;;14.34;65.14;98525.50;4468180;32;20115;-82
2022/10/02 02:53:34;;;;;;;3.72;1.30;;;;;;;14.41;65.34;98550.63;4469381;32;20104;-83
2022/10/02 02:56:00;;;;;;;5.37;1.48;;;;;;;14.45;65.35;98554.72;4469370;32;20440;-83
2022/10/02 02:58:26;;;;;;;3.40;1.20;;;;;;;14.29;65.50;98546.19;4469265;32;20505;-84
2022/10/02 03:00:51;;;;;;;3.60;1.20;;;;;;;14.06;66.24;98562.00;4470171;32;20108;-84
2022/10/02 03:03:17;;;;;;;3.30;1.20;;;;;;;14.68;64.17;98554.81;4470373;32;20096;-84
2022/10/02 03:05:52;;;;;;;2.72;1.20;;;;;;;14.16;66.20;98565.66;4472282;32;20146;-84
2022/10/02 03:08:24;;;;;;;3.35;1.30;;;;;;;14.13;66.21;98563.22;4471198;32;20532;-84
2022/10/02 03:11:04;;;;;;;5.40;1.50;;;;;;;14.57;65.05;98566.25;4471204;32;20115;-84
2022/10/02 03:13:32;;;;;;;4.15;1.30;;;;;;;14.64;65.02;98569.28;4472320;32;20088;-83
2022/10/02 03:16:21;;;;;;;3.80;1.40;;;;;;;13.79;67.51;98572.78;4472193;32;20149;-84
2022/10/02 03:18:59;;;;;;;2.90;1.10;;;;;;;13.97;67.24;98583.84;4471089;32;20135;-84
2022/10/02 03:21:50;;;;;;;3.78;1.20;;;;;;;14.11;66.83;98566.94;4472152;32;20101;-83
2022/10/02 03:24:20;;;;;;;3.12;1.20;;;;;;;14.09;66.75;98598.84;4471054;32;20088;-83
2022/10/02 03:26:54;;;;;;;5.78;1.45;;;;;;;14.09;66.93;98590.87;4471035;32;20072;-83
2022/10/02 03:29:27;;;;;;;2.60;1.27;;;;;;;14.04;66.97;98598.34;4472236;32;20097;-82
2022/10/02 03:31:53;;;;;;;1.80;1.00;;;;;;;14.14;67.23;98595.88;4472328;32;20104;-82
2022/10/02 03:34:18;;;;;;;4.18;1.10;;;;;;;14.45;65.65;98588.34;4472155;32;20164;-82
2022/10/02 03:36:44;;;;;;;2.53;1.17;;;;;;;14.28;66.04;98585.09;4471878;32;20356;-82
2022/10/02 03:39:10;;;;;;;3.95;1.20;;;;;;;13.76;67.31;98602.94;4470650;32;20131;-82
2022/10/02 03:41:35;;;;;;;3.65;1.20;;;;;;;13.98;66.76;98600.56;4470909;32;20121;-82
2022/10/02 03:44:01;;;;;;;5.70;1.25;;;;;;;14.28;65.95;98585.09;4472061;32;20110;-83
2022/10/02 03:46:26;;;;;;;6.62;1.30;;;;;;;14.11;66.39;98601.38;4457955;32;20081;-82
2022/10/02 03:48:52;;;;;;;6.75;1.20;;;;;;;13.83;66.84;98597.19;4472184;32;20088;-83
2022/10/02 03:51:17;;;;;;;5.70;1.20;;;;;;;13.75;67.14;98595.97;4472175;32;20137;-83
2022/10/02 03:53:42;;;;;;;3.50;1.08;;;;;;;13.76;66.91;98610.03;4471954;32;20120;-82
2022/10/02 03:56:18;;;;;;;2.53;1.08;;;;;;;14.08;66.24;98609.53;4471065;32;20085;-82
2022/10/02 03:58:46;;;;;;;4.03;1.10;;;;;;;13.74;67.08;98620.72;4470891;32;20851;-83
2022/10/02 04:01:32;;;;;;;2.33;0.98;;;;;;;13.87;66.84;98614.56;4471938;32;20089;-82
2022/10/02 04:04:00;;;;;;;2.15;0.90;;;;;;;13.92;66.39;98615.09;4470918;32;20106;-83
2022/10/02 04:06:33;;;;;;;3.17;1.05;;;;;;;13.98;66.34;98619.94;4471842;32;20478;-83
2022/10/02 04:09:17;;;;;;;4.18;1.17;;;;;;;13.89;66.85;98610.03;4471978;32;20436;-83
2022/10/02 04:11:45;;;;;;;3.03;1.20;;;;;;;13.46;68.36;98621.81;4457752;32;20139;-83
2022/10/02 04:14:34;;;;;;;3.67;1.00;;;;;;;13.53;68.54;98625.72;4471708;32;20111;-83
2022/10/02 04:17:06;;;;;;;3.65;0.90;;;;;;;13.92;67.56;98623.88;4471969;32;20081;-83
2022/10/02 04:19:37;;;;;;;2.53;1.10;;;;;;;13.82;67.69;98633.44;4471793;32;20148;-83
2022/10/02 04:22:10;;;;;;;2.28;0.85;;;;;;;14.10;66.66;98619.09;4457600;32;20126;-84
2022/10/02 04:24:44;;;;;;;2.80;1.10;;;;;;;13.87;67.44;98628.66;4470832;32;20088;-83
2022/10/02 04:27:28;;;;;;;2.30;0.80;;;;;;;13.51;68.70;98640.84;4470918;32;20076;-83
2022/10/02 04:30:26;;;;;;;3.47;1.20;;;;;;;13.65;68.25;98645.19;4471743;32;20153;-83
2022/10/02 04:32:52;;;;;;;2.47;0.90;;;;;;;13.44;69.22;98650.16;4394941;32;20197;-84
2022/10/02 04:35:20;;;;;;;4.35;0.95;;;;;;;13.58;68.57;98646.59;4407720;32;20113;-83
2022/10/02 04:38:08;;;;;;;;;;;;;;;13.96;66.97;98643.91;4408116;32;20114;-84
2022/10/02 04:40:34;;;;;;;3.40;1.02;;;;;;;13.84;67.46;98651.87;4403716;32;19981;-83
2022/10/02 04:43:41;;;;;;;3.03;1.10;;;;;;;13.57;68.49;98663.41;4407711;32;20145;-83
2022/10/02 04:46:47;;;;;;;1.75;1.00;;;;;;;13.76;67.50;98668.28;4407748;32;20156;-83
2022/10/02 04:49:33;;;;;;;3.37;1.12;;;;;;;13.95;66.76;98675.78;4395059;32;20081;-83
2022/10/02 04:52:27;;;;;;;4.32;1.15;;;;;;;14.04;66.49;98682.22;4407528;32;20098;-82
2022/10/02 04:54:57;;;;;;;2.47;0.85;;;;;;;13.67;67.40;98679.50;4395482;32;20102;-83
2022/10/02 04:57:25;;;;;;;2.45;1.00;;;;;;;14.02;65.83;98662.94;4395166;32;20079;-83
2022/10/02 05:00:09;;;;;;;3.17;1.00;;;;;;;13.71;66.99;98684.50;4407554;32;20477;-83
2022/10/02 05:02:37;;;;;;;2.05;0.95;;;;;;;13.45;67.50;98696.03;4407622;32;20124;-82
2022/10/02 05:05:12;;;;;;;3.25;1.00;;;;;;;13.89;65.51;98694.75;4407691;32;20105;-82
2022/10/02 05:07:46;;;;;;;3.75;1.00;;;;;;;13.80;65.82;98701.53;4417021;32;20107;-82
2022/10/02 05:10:49;;;;;;;3.45;0.98;;;;;;;13.66;66.26;98701.66;4471620;32;20454;-82
2022/10/02 05:13:51;;;;;;;2.70;0.95;;;;;;;13.87;65.47;98705.47;4471571;32;20532;-82
2022/10/02 05:16:43;;;;;;;4.35;1.20;;;;;;;14.25;64.07;98715.16;4470418;32;20125;-82
2022/10/02 05:19:23;;;;;;;2.80;1.00;;;;;;;14.19;64.33;98712.94;4471143;32;20385;-82
2022/10/02 05:22:34;;;;;;;2.47;1.00;;;;;;;14.38;63.23;98714.28;4471570;32;20423;-82
2022/10/02 05:25:27;;;;;;;3.58;1.25;;;;;;;14.74;62.23;98711.66;4407649;32;20106;-82
2022/10/02 05:27:58;;;;;;;4.35;1.10;;;;;;;14.34;62.88;98701.25;4394862;32;20165;-82
2022/10/02 05:30:24;;;;;;;3.28;1.00;;;;;;;14.49;62.62;98706.44;4407465;32;20267;-82
2022/10/02 05:33:01;;;;;;;3.00;1.05;;;;;;;14.25;63.34;98709.84;4406998;32;20106;-82
2022/10/02 05:35:42;;;;;;;3.75;1.02;;;;;;;13.99;64.29;98706.41;4407293;32;20099;-83
2022/10/02 05:38:43;;;;;;;4.72;1.12;;;;;;;14.41;62.89;98706.97;4407335;32;20308;-83
2022/10/02 05:41:36;;;;;;;3.72;1.10;;;;;;;14.59;62.09;98702.19;4407359;32;20559;-83
2022/10/02 05:44:18;;;;;;;5.55;1.10;;;;;;;14.52;nan;98725.56;4407553;32;20415;-82
2022/10/02 05:46:50;;;;;;;4.43;1.10;;;;;;;14.22;63.22;98712.72;4394947;32;20097;-82
2022/10/02 05:49:24;;;;;;;3.72;1.02;;;;;;;14.44;63.17;98724.44;4394873;32;20715;-83
2022/10/02 05:52:02;;;;;;;4.32;1.00;;;;;;;14.74;62.04;98726.75;4394699;32;20095;-79
2022/10/02 05:54:52;;;;;;;5.32;1.00;;;;;;;14.88;61.46;98723.91;4394609;32;20116;-79
2022/10/02 05:57:26;;;;;;;3.72;1.02;;;;;;;14.75;61.33;98731.91;4394937;32;20244;-80
2022/10/02 06:00:04;;;;;;;2.97;1.10;;;;;;;14.81;61.71;98732.44;4407416;32;20134;-80
2022/10/02 06:02:59;;;;;;;4.78;1.00;;;;;;;14.89;61.15;98736.22;4457236;32;20149;-79
2022/10/02 06:05:53;;;;;;;3.17;1.10;;;;;;;14.62;61.75;98755.00;4469799;32;20088;-79
2022/10/02 06:08:23;;;;;;;2.92;1.12;;;;;;;14.86;61.11;98746.22;4471003;32;20119;-81
2022/10/02 06:10:53;;;;;;;5.95;1.20;;;;;;;14.68;61.64;98748.38;4469673;32;20123;-79
2022/10/02 06:13:36;;;;;;;3.70;0.90;;;;;;;14.89;61.37;98759.22;4469704;32;20107;-80
2022/10/02 06:16:07;;;;;;;4.53;1.12;;;;;;;14.88;61.21;98758.37;4469706;32;20521;-79
2022/10/02 06:18:35;;;;;;;4.95;1.17;;;;;;;14.58;61.88;98755.31;4470871;32;20179;-80
2022/10/02 06:21:08;;;;;;;3.83;1.02;;;;;;;14.93;61.33;98769.53;4470610;32;20085;-80
2022/10/02 06:23:39;;;;;;;5.72;1.35;;;;;;;14.72;61.84;98768.44;4469401;32;20445;-80
2022/10/02 06:27:02;;;;;;;3.50;1.10;;;;;;;14.73;61.76;98773.59;4469602;32;20085;-81
2022/10/02 06:29:33;;;;;;;6.25;1.00;;;;;;;15.25;60.03;98760.16;4406864;32;20390;-81
2022/10/02 06:32:18;;;;;;;4.40;1.20;;;;;;;14.82;61.88;98777.41;4394319;32;20171;-82
2022/10/02 06:34:44;;;;;;;5.40;1.20;;;;;;;14.90;61.46;98772.38;4394238;32;20537;-81
2022/10/02 06:37:21;;;;;;;4.00;1.02;;;;;;;15.46;59.79;98765.66;4393893;32;20164;-80
2022/10/02 06:40:07;;;;;;;3.67;1.10;;;;;;;14.62;61.70;98781.50;4408206;32;20102;-81
2022/10/02 06:42:49;;;;;;;3.25;0.95;;;;;;;15.09;60.73;98771.91;4396120;32;20094;-81
2022/10/02 06:45:41;;;;;;;3.53;1.05;;;;;;;14.96;60.93;98789.66;4408659;32;20086;-81
2022/10/02 06:48:33;;;;;;;3.62;0.88;;;;;;;15.27;60.05;98792.72;4378301;32;20447;-81
2022/10/02 06:51:13;;;;;;;4.05;1.00;;;;;;;15.17;59.92;98786.41;4365662;32;20127;-82
2022/10/02 06:53:54;;;;;;;3.22;1.00;;;;;;;15.05;60.00;98799.63;4366062;32;20124;-83
2022/10/02 06:56:46;;;;;;;5.30;1.25;;;;;;;15.10;59.90;98804.56;4378516;32;20101;-83
2022/10/02 06:59:33;;;;;;;3.75;1.00;;;;;;;15.11;60.95;98814.25;4378408;32;20215;-85
2022/10/02 07:02:24;;;;;;;4.55;1.10;;;;;;;15.25;59.80;98815.88;4378351;32;20098;-87
2022/10/02 07:05:17;;;;;;;4.47;1.20;;;;;;;15.70;58.29;98821.38;4384174;32;20462;-83
2022/10/02 07:07:48;;;;;;;3.62;1.15;;;;;;;15.87;57.74;98826.28;4380729;32;20120;-85
2022/10/02 07:10:33;;;;;;;3.08;1.08;;;;;;;15.83;57.85;98829.31;4380577;32;20174;-83
2022/10/02 07:13:21;;;;;;;3.75;1.00;;;;;;;15.73;58.05;98845.94;4380628;32;20095;-83
2022/10/02 07:15:50;;;;;;;3.33;1.10;;;;;;;15.15;59.42;98842.25;4380743;32;20531;-84
2022/10/02 07:18:46;;;;;;;5.60;1.20;;;;;;;15.97;57.21;98838.88;4393142;32;20304;-84
2022/10/02 07:21:31;;;;;;;2.45;1.00;;;;;;;16.05;57.20;98837.34;4393105;32;20086;-85
2022/10/02 07:24:13;;;;;;;4.95;1.08;;;;;;;16.04;56.77;98829.50;4378971;32;20111;-85
2022/10/02 07:27:04;;;;;;;4.50;1.17;;;;;;;15.92;57.28;98834.78;4458285;32;20104;-92
2022/10/02 07:29:44;;;;;;;4.30;1.08;;;;;;;15.67;58.32;98850.84;4470898;32;20092;-87
2022/10/02 07:32:32;;;;;;;5.60;1.08;;;;;;;15.88;57.40;98849.25;4463457;32;20164;-83
2022/10/02 07:35:21;;;;;;;4.35;1.02;;;;;;;16.17;56.76;98843.53;4450410;32;20097;-84
2022/10/02 07:37:47;;;;;;;4.80;0.95;;;;;;;15.92;57.34;98857.84;4456539;32;20108;-80
2022/10/02 07:40:37;;;;;;;7.07;1.15;;;;;;;16.15;56.63;98856.09;4456488;32;20176;-84
2022/10/02 07:43:27;;;;;;;4.87;1.10;;;;;;;16.26;56.29;98857.91;4456442;32;20155;-85
2022/10/02 07:45:58;;;;;;;5.30;1.08;;;;;;;16.12;56.35;98864.28;4456480;32;20162;-83
2022/10/02 07:48:59;;;;;;;5.72;1.10;;;;;;;16.11;55.75;98865.28;4457556;32;20101;-83
2022/10/02 07:51:49;;;;;;;4.75;1.02;;;;;;;16.05;55.96;98855.09;4455901;32;20088;-83
2022/10/02 07:54:33;;;;;;;5.75;1.10;;;;;;;16.00;56.89;98858.09;4462639;32;20069;-84
2022/10/02 07:57:06;;;;;;;4.20;1.00;;;;;;;16.44;55.25;98856.50;4462483;32;20168;-85
2022/10/02 07:59:32;;;;;;;5.53;1.10;;;;;;;16.40;54.98;98864.81;4463012;32;20388;-83
2022/10/02 08:01:58;;;;;;;5.28;1.42;;;;;;;16.49;54.09;98856.13;4448462;32;20124;-84
2022/10/02 08:04:29;;;;;;;7.53;1.23;;;;;;;15.71;56.76;98863.75;4464269;32;20106;-84
2022/10/02 08:07:02;;;;;;;5.35;1.08;;;;;;;16.21;55.52;98876.88;4452550;32;20109;-82
2022/10/02 08:09:32;;;;;;;6.45;1.00;;;;;;;16.13;54.18;98876.62;4459519;32;20105;-83
2022/10/02 08:12:15;;;;;;;7.40;1.10;;;;;;;16.07;55.18;98871.75;4458695;32;20115;-81
2022/10/02 08:14:43;;;;;;;5.18;1.15;;;;;;;15.86;55.80;98867.13;4452344;32;20077;-81
2022/10/02 08:17:26;;;;;;;4.72;1.10;;;;;;;16.13;55.42;98868.66;4454081;32;20105;-82
2022/10/02 08:19:54;;;;;;;5.18;0.88;;;;;;;16.20;54.12;98874.34;4455249;32;20121;-82
2022/10/02 08:22:23;;;;;;;;;;;;;;;15.89;55.40;98882.81;4452315;32;20542;-81
2022/10/02 08:24:55;;;;;;;4.95;1.10;;;;;;;16.25;54.77;98881.00;4462909;32;20060;-80
2022/10/02 08:27:24;;;;;;;5.62;1.02;;;;;;;16.47;53.23;98882.00;4472572;32;20159;-83
2022/10/02 08:29:54;;;;;;;6.75;1.02;;;;;;;16.47;53.41;98884.66;4470252;32;20493;-83
2022/10/02 08:32:21;;;;;;;5.68;1.35;;;;;;;16.64;53.64;98883.34;4459616;32;20088;-81
2022/10/02 08:34:46;;;;;;;3.80;0.93;;;;;;;16.79;52.89;98890.13;4479544;32;20140;-81
2022/10/02 08:37:41;;;;;;;4.65;0.90;;;;;;;16.79;52.34;98879.50;4471748;32;20096;-83
2022/10/02 08:40:27;;;;;;;4.28;0.90;;;;;;;16.41;53.35;98893.97;4462491;32;20123;-83
2022/10/02 08:43:09;;;;;;;5.47;1.33;;;;;;;16.61;53.20;98888.91;4480685;32;20509;-82
2022/10/02 08:46:05;;;;;;;7.57;1.00;;;;;;;16.77;51.88;98888.56;4474356;32;20444;-81
2022/10/02 08:49:05;;;;;;;4.97;1.05;;;;;;;16.75;52.82;98886.03;4457225;32;20112;-88
2022/10/02 08:51:49;;;;;;;5.53;0.90;;;;;;;16.71;52.49;98887.25;4477234;31;20146;-88
2022/10/02 08:55:09;;;;;;;4.35;0.93;;;;;;;17.04;51.30;98891.75;4480737;32;20557;-83
2022/10/02 08:57:46;;;;;;;4.65;1.10;;;;;;;17.31;51.53;98898.47;4434038;32;20112;-82
2022/10/02 09:00:26;;;;;;;4.57;0.98;;;;;;;17.25;52.15;98893.66;4421139;32;20172;-80
2022/10/02 09:03:19;;;;;;;5.97;1.15;;;;;;;17.03;51.75;98902.50;4421373;32;20105;-82
2022/10/02 09:06:19;;;;;;;5.93;1.08;;;;;;;16.80;51.62;98896.28;4434888;32;20143;-85
2022/10/02 09:08:47;;;;;;;3.90;0.80;;;;;;;16.88;51.28;98891.25;4421605;32;21624;-82
2022/10/02 09:11:36;;;;;;;5.93;1.20;;;;;;;17.23;50.67;98891.13;4434394;32;20097;-81
2022/10/02 09:14:11;;;;;;;4.68;0.90;;;;;;;16.74;51.98;98894.97;4422327;32;20153;-83
2022/10/02 09:16:55;;;;;;;6.87;1.00;;;;;;;17.07;50.50;98902.16;4435238;32;20154;-80
2022/10/02 09:19:26;;;;;;;3.70;0.90;;;;;;;16.88;50.52;98892.12;4435400;32;20090;-83
2022/10/02 09:21:55;;;;;;;5.07;0.90;;;;;;;17.28;49.25;98890.72;4435384;32;20106;-83
2022/10/02 09:24:23;;;;;;;6.10;0.95;;;;;;;17.47;48.52;98896.25;4434815;32;20216;-82
2022/10/02 09:27:03;;;;;;;7.07;0.88;;;;;;;17.12;49.31;98896.44;4434850;32;20125;-82
2022/10/02 09:29:54;;;;;;;7.95;1.30;;;;;;;17.23;49.71;98896.44;4434435;32;20248;-84
2022/10/02 09:32:44;;;;;;;7.47;1.48;;;;;;;17.49;49.04;98889.00;4477622;32;20112;-83
2022/10/02 09:35:30;;;;;;;4.57;0.80;;;;;;;17.53;48.89;98888.75;4461205;32;20134;-82
2022/10/02 09:38:07;;;;;;;4.85;0.80;;;;;;;17.54;48.49;98874.44;4464315;32;20177;-82
2022/10/02 09:41:23;;;;;;;7.97;1.05;;;;;;;17.42;47.70;98879.81;4478931;32;20613;-83
2022/10/02 09:43:51;;;;;;;4.87;0.80;;;;;;;17.38;47.88;98865.03;4418903;32;20133;-84
2022/10/02 09:46:43;;;;;;;8.50;1.02;;;;;;;17.43;48.04;98872.69;4420298;32;20428;-83
2022/10/02 09:49:44;;;;;;;5.12;1.10;;;;;;;17.55;48.35;98870.81;4404026;32;20112;-81
2022/10/02 09:52:27;;;;;;;4.40;0.85;;;;;;;18.07;46.37;98871.84;4404204;32;20115;-84
2022/10/02 09:55:01;;;;;;;4.65;1.00;;;;;;;17.93;46.67;98861.50;4402641;32;20110;-83
2022/10/02 09:57:49;;;;;;;6.25;1.30;;;;;;;17.92;46.84;98867.81;4410197;32;20114;-83
2022/10/02 10:00:20;;;;;;;4.85;1.00;;;;;;;18.07;45.69;98872.69;4419711;32;20144;-83
2022/10/02 10:03:09;;;;;;;6.82;1.00;;;;;;;17.96;45.52;98867.41;4418784;32;20153;-84
2022/10/02 10:05:53;;;;;;;6.15;1.00;;;;;;;17.98;46.50;98861.94;4419066;32;20121;-83
2022/10/02 10:08:53;;;;;;;4.93;0.90;;;;;;;18.09;47.36;98869.91;4418498;32;20118;-83
2022/10/02 10:11:42;;;;;;;5.43;1.10;;;;;;;18.44;46.23;98861.53;4408771;32;20118;-83
2022/10/02 10:14:07;;;;;;;;;;;;;;;18.18;46.76;98865.63;4404694;32;20181;-84
2022/10/02 10:16:45;;;;;;;4.93;1.10;;;;;;;17.98;46.72;98868.16;4415825;32;20037;-83
2022/10/02 10:19:33;;;;;;;3.92;0.88;;;;;;;18.55;45.24;98867.78;4428797;32;20151;-83
2022/10/02 10:22:38;;;;;;;6.57;1.10;;;;;;;18.47;44.61;98860.47;4474657;32;20460;-85
2022/10/02 10:25:49;;;;;;;4.32;1.00;;;;;;;18.01;45.71;98864.38;4470068;32;20152;-83
2022/10/02 10:28:32;;;;;;;4.62;1.00;;;;;;;18.27;44.92;98870.16;4407626;32;20141;-83
2022/10/02 10:31:13;;;;;;;8.60;2.05;;;;;;;18.99;43.57;98847.94;4394496;32;20963;-82
2022/10/02 10:34:07;;;;;;;5.70;0.90;;;;;;;18.81;43.35;98838.84;4410905;32;20116;-85
2022/10/02 10:40:03;;;;;;;6.45;1.33;;;;;;;18.57;43.67;98845.34;4372480;32;20172;-84
2022/10/02 10:43:03;;;;;;;5.82;1.10;;;;;;;18.51;44.64;98851.22;4373657;32;20160;-84
2022/10/02 10:45:40;;;;;;;5.57;1.02;;;;;;;19.01;44.55;98855.81;4366722;32;20107;-83
2022/10/02 10:48:50;;;;;;;4.25;0.90;;;;;;;18.52;44.74;98846.72;4367187;32;20516;-82
2022/10/02 10:51:31;;;;;;;4.07;0.90;;;;;;;18.40;45.37;98852.13;4315788;33;20183;-84
2022/10/02 10:54:39;;;;;;;5.78;0.85;;;;;;;18.47;44.44;98857.78;4320213;33;20116;-81
2022/10/02 10:57:38;;;;;;;6.62;1.15;;;;;;;18.46;45.13;98851.59;4314139;33;20116;-83
2022/10/02 11:00:21;;;;;;;5.87;1.10;;;;;;;18.56;44.80;98850.78;4315665;33;20142;-83
2022/10/02 11:03:11;;;;;;;3.70;1.00;;;;;;;18.32;45.40;98851.94;4311407;33;20142;-85
2022/10/02 11:06:15;;;;;;;5.80;1.12;;;;;;;18.24;45.38;98854.44;4336585;32;20187;-83
2022/10/02 11:09:05;;;;;;;4.72;1.05;;;;;;;18.03;45.84;98849.09;4337760;32;20080;-87
2022/10/02 11:11:38;;;;;;;4.93;1.15;;;;;;;18.51;44.99;98859.22;4342405;32;20157;-85
2022/10/02 11:14:30;;;;;;;4.68;1.12;;;;;;;18.44;45.28;98866.03;4371700;32;20132;-84
2022/10/02 11:17:47;;;;;;;6.90;1.20;;;;;;;18.23;45.69;98863.38;4399508;32;20206;-86
2022/10/02 11:20:34;;;;;;;6.75;1.15;;;;;;;18.35;45.50;98861.50;4343036;33;20091;-86
2022/10/02 11:23:35;;;;;;;5.68;1.12;;;;;;;18.25;45.98;98862.31;4342970;33;20661;-85
2022/10/02 11:26:25;;;;;;;5.20;1.27;;;;;;;18.24;46.66;98863.25;4343943;33;20166;-84
2022/10/02 11:29:11;;;;;;;4.50;1.10;;;;;;;18.66;46.11;98860.56;4402033;32;20174;-86
2022/10/02 11:31:37;;;;;;;3.12;0.95;;;;;;;18.35;46.35;98862.34;4407664;32;20485;-88
2022/10/02 11:34:41;;;;;;;6.32;1.10;;;;;;;18.81;45.28;98853.06;4419629;32;20146;-85
2022/10/02 11:37:24;;;;;;;5.25;1.10;;;;;;;18.45;45.78;98854.41;4423830;32;20937;-86
2022/10/02 11:40:14;;;;;;;6.55;1.23;;;;;;;18.34;46.75;98843.81;4410405;32;20086;-86
2022/10/02 11:43:10;;;;;;;7.20;1.17;;;;;;;18.97;45.74;98843.72;4417057;32;20105;-85
2022/10/02 11:45:59;;;;;;;5.82;1.10;;;;;;;19.08;45.78;98840.06;4422294;32;20124;-86
2022/10/02 11:48:27;;;;;;;5.53;1.58;;;;;;;19.21;45.35;98827.31;4429835;32;20097;-85
2022/10/02 11:51:30;;;;;;;4.87;1.23;;;;;;;18.75;45.86;98828.69;4420878;32;20473;-85
2022/10/02 11:54:10;;;;;;;4.87;1.27;;;;;;;18.88;45.67;98825.84;4432561;32;20171;-85
2022/10/02 11:57:00;;;;;;;6.22;1.17;;;;;;;19.19;45.85;98818.59;4479479;32;20104;-84
2022/10/02 11:59:35;;;;;;;5.10;1.10;;;;;;;19.35;46.10;98815.38;4484137;31;20507;-86
2022/10/02 12:02:06;;;;;;;5.28;1.20;;;;;;;19.32;46.49;98821.03;4471632;32;20611;-85
2022/10/02 12:04:51;;;;;;;4.97;1.08;;;;;;;18.69;47.08;98827.41;4484411;32;20213;-85
2022/10/02 12:07:35;;;;;;;7.00;1.00;;;;;;;18.39;47.41;98834.44;4474342;32;20163;-86
2022/10/02 12:10:00;;;;;;;3.42;1.23;;;;;;;18.52;48.20;98841.38;4457160;32;20108;-84
2022/10/02 12:12:40;;;;;;;3.37;0.90;;;;;;;18.08;49.13;98845.06;4485156;31;20079;-86
2022/10/02 12:15:12;;;;;;;5.45;1.20;;;;;;;18.46;48.45;98840.06;4477448;32;20092;-87
2022/10/02 12:17:52;;;;;;;5.28;1.02;;;;;;;17.93;49.09;98833.03;4469714;32;20144;-81
2022/10/02 12:27:08;;;;;;;5.43;1.23;;;;;;;18.72;48.95;98831.66;4403443;32;20512;-82
2022/10/02 12:30:00;;;;;;;5.10;1.35;;;;;;;18.35;50.05;98827.69;4415679;32;20101;-84
2022/10/02 12:32:29;;;;;;;7.22;1.23;;;;;;;17.99;51.19;98821.84;4404560;32;20602;-82
2022/10/02 12:35:15;;;;;;;3.78;0.93;;;;;;;18.08;52.16;98821.06;4405018;32;20188;-83
2022/10/02 12:37:49;;;;;;;3.60;0.93;;;;;;;17.53;53.40;98824.81;4403841;32;20089;-83
2022/10/02 12:40:15;;;;;;;3.97;1.00;;;;;;;18.17;51.84;98810.59;4404279;32;20157;-83
2022/10/02 12:42:59;;;;;;;4.68;1.00;;;;;;;18.07;52.48;98813.19;4405043;32;20314;-84